Time;durP1;ratioP1;P1;durP2;ratioP2;P2;SDS_P1;SDS_P2;PMS_P1;PMS_P2;Temp;Humidity;BMP_temperature;BMP_pressure;BME280_temperature;BME280_humidity;BME280_pressure;Samples;Min_cycle;Max_cycle;Signal;HPM_P1;HPM_P2
2021/04/07 00:00:19;;;;;;;1.30;0.63;;;21.00;49.50;;;;;;5070852;28;20432;-83
2021/04/07 00:02:45;;;;;;;1.37;0.67;;;21.00;48.80;;;;;;5086487;28;20264;-83
2021/04/07 00:05:13;;;;;;;0.80;0.60;;;21.00;49.30;;;;;;5088069;28;20420;-83
2021/04/07 00:07:42;;;;;;;1.60;0.70;;;21.00;49.10;;;;;;5070854;28;20174;-83
2021/04/07 00:10:10;;;;;;;1.20;0.70;;;21.00;49.70;;;;;;5070959;28;20785;-84
2021/04/07 00:12:36;;;;;;;1.00;0.70;;;21.00;49.30;;;;;;5087365;28;20408;-83
2021/04/07 00:15:06;;;;;;;1.20;0.70;;;21.00;49.50;;;;;;5087912;28;20933;-83
2021/04/07 00:17:32;;;;;;;1.30;0.70;;;21.00;49.00;;;;;;5070612;28;20170;-83
2021/04/07 00:19:57;;;;;;;1.00;0.80;;;21.00;49.60;;;;;;5069811;28;20421;-83
2021/04/07 00:22:23;;;;;;;1.00;0.60;;;21.00;49.60;;;;;;5088112;28;20201;-83
2021/04/07 00:24:49;;;;;;;2.07;0.60;;;21.00;49.20;;;;;;5086854;28;20193;-83
2021/04/07 00:27:16;;;;;;;0.90;0.73;;;21.00;49.10;;;;;;5070046;28;20184;-83
2021/04/07 00:29:42;;;;;;;1.70;0.80;;;20.70;49.10;;;;;;5070122;28;20181;-83
2021/04/07 00:32:08;;;;;;;1.10;0.77;;;21.00;49.70;;;;;;5069841;28;20969;-83
2021/04/07 00:34:36;;;;;;;0.80;0.50;;;21.00;49.60;;;;;;5087977;28;20170;-83
2021/04/07 00:37:02;;;;;;;1.10;0.80;;;21.00;49.10;;;;;;5069672;28;20241;-83
2021/04/07 00:39:28;;;;;;;1.07;0.70;;;21.00;49.40;;;;;;5069869;28;20459;-83
2021/04/07 00:41:53;;;;;;;0.90;0.63;;;21.00;49.40;;;;;;5087728;28;20234;-83
2021/04/07 00:44:19;;;;;;;2.27;1.53;;;21.00;49.30;;;;;;5068872;28;20181;-83
2021/04/07 00:46:45;;;;;;;1.00;0.80;;;21.00;49.20;;;;;;5069009;28;20174;-83
2021/04/07 00:49:10;;;;;;;0.93;0.63;;;21.00;49.50;;;;;;5086048;28;20237;-83
2021/04/07 00:51:44;;;;;;;0.90;0.70;;;21.00;49.50;;;;;;5087889;28;20186;-83
2021/04/07 00:54:10;;;;;;;1.20;1.03;;;21.00;49.10;;;;;;5069290;28;20186;-83
2021/04/07 00:56:36;;;;;;;1.10;0.87;;;20.90;49.90;;;;;;5056604;28;20443;-83
2021/04/07 00:59:03;;;;;;;0.80;0.60;;;21.00;49.80;;;;;;5073835;28;20624;-83
2021/04/07 01:01:31;;;;;;;1.00;0.70;;;21.00;49.70;;;;;;5091000;28;20416;-83
2021/04/07 01:03:57;;;;;;;1.30;0.70;;;21.00;49.00;;;;;;5092954;28;20455;-83
2021/04/07 01:06:23;;;;;;;3.83;0.70;;;21.00;49.40;;;;;;5071990;28;20996;-83
2021/04/07 01:08:49;;;;;;;1.53;0.60;;;21.00;49.00;;;;;;5088846;28;20436;-83
2021/04/07 01:11:17;;;;;;;0.90;0.70;;;20.90;49.30;;;;;;5071802;28;20458;-83
2021/04/07 01:13:45;;;;;;;1.00;0.80;;;20.90;49.70;;;;;;5090613;28;20420;-83
2021/04/07 01:16:11;;;;;;;1.30;0.70;;;20.90;49.50;;;;;;5091766;28;20428;-83
2021/04/07 01:18:37;;;;;;;0.90;0.60;;;20.90;49.60;;;;;;5075460;28;20502;-83
2021/04/07 01:21:06;;;;;;;1.00;0.70;;;20.90;49.60;;;;;;5079611;28;20650;-83
2021/04/07 01:23:32;;;;;;;0.90;0.70;;;20.90;48.90;;;;;;5074895;28;20640;-83
2021/04/07 01:26:00;;;;;;;1.00;0.80;;;20.90;48.80;;;;;;5083437;28;20417;-83
2021/04/07 01:28:26;;;;;;;1.43;0.60;;;20.90;48.90;;;;;;5089552;28;20416;-83
2021/04/07 01:30:52;;;;;;;1.27;0.67;;;20.90;49.40;;;;;;5072899;28;20427;-84
2021/04/07 01:33:22;;;;;;;1.10;0.70;;;20.90;49.80;;;;;;5068609;28;20213;-83
2021/04/07 01:35:48;;;;;;;0.80;0.60;;;20.90;48.90;;;;;;5083163;28;20197;-83
2021/04/07 01:38:14;;;;;;;1.10;0.60;;;20.90;48.90;;;;;;5084527;28;20524;-83
2021/04/07 01:40:42;;;;;;;1.10;0.80;;;20.90;49.60;;;;;;5076885;28;20419;-83
2021/04/07 01:43:15;;;;;;;2.40;0.70;;;20.90;49.10;;;;;;5077232;28;20213;-83
2021/04/07 01:45:41;;;;;;;1.10;0.70;;;20.90;48.80;;;;;;5087797;28;20428;-83
2021/04/07 01:48:08;;;;;;;0.90;0.70;;;20.90;49.00;;;;;;5087893;28;20417;-83
2021/04/07 01:50:38;;;;;;;0.97;0.63;;;20.90;49.30;;;;;;5073041;28;20420;-83
2021/04/07 01:53:04;;;;;;;1.20;0.70;;;20.90;48.90;;;;;;5071660;28;20417;-83
2021/04/07 01:55:29;;;;;;;1.20;0.83;;;20.90;49.50;;;;;;5071390;28;20417;-84
2021/04/07 01:57:55;;;;;;;0.90;0.60;;;20.90;50.20;;;;;;5079578;28;20178;-83
2021/04/07 02:00:22;;;;;;;1.00;0.60;;;20.90;49.90;;;;;;5089071;28;20249;-83
2021/04/07 02:02:47;;;;;;;0.90;0.60;;;20.90;49.20;;;;;;5082411;28;20670;-83
2021/04/07 02:05:15;;;;;;;1.00;0.60;;;20.90;49.00;;;;;;5094204;28;20424;-83
2021/04/07 02:07:40;;;;;;;1.37;0.70;;;20.90;49.20;;;;;;5070527;28;20182;-83
2021/04/07 02:10:09;;;;;;;1.23;0.70;;;20.90;49.40;;;;;;5094855;28;20416;-83
2021/04/07 02:12:35;;;;;;;1.00;0.70;;;20.80;49.10;;;;;;5089037;28;20520;-83
2021/04/07 02:15:09;;;;;;;1.23;0.80;;;20.90;49.20;;;;;;5071328;28;20429;-82
2021/04/07 02:17:37;;;;;;;1.17;0.70;;;20.90;48.80;;;;;;5089227;28;20406;-82
2021/04/07 02:20:05;;;;;;;0.90;0.60;;;20.80;49.50;;;;;;5075674;28;20532;-83
2021/04/07 02:22:31;;;;;;;1.57;0.77;;;20.90;49.30;;;;;;5099917;28;20463;-83
2021/04/07 02:24:57;;;;;;;0.80;0.60;;;20.90;49.50;;;;;;5100837;28;20414;-84
2021/04/07 02:27:24;;;;;;;1.47;0.70;;;20.80;49.10;;;;;;5074968;28;20594;-83
2021/04/07 02:29:52;;;;;;;0.90;0.50;;;20.90;48.90;;;;;;5070021;28;20179;-83
2021/04/07 02:32:18;;;;;;;1.00;0.80;;;20.80;49.10;;;;;;5079428;28;20442;-83
2021/04/07 02:34:44;;;;;;;1.20;0.70;;;20.80;49.70;;;;;;5071255;28;20425;-83
2021/04/07 02:37:11;;;;;;;1.77;0.67;;;20.80;49.70;;;;;;5071508;28;20431;-83
2021/04/07 02:39:37;;;;;;;1.03;0.70;;;20.90;49.10;;;;;;5068860;28;21065;-83
2021/04/07 02:42:03;;;;;;;1.17;0.90;;;20.80;49.20;;;;;;5072765;28;20424;-83
2021/04/07 02:44:29;;;;;;;1.10;0.60;;;20.80;49.30;;;;;;5079521;28;20416;-83
2021/04/07 02:46:55;;;;;;;0.90;0.70;;;20.80;49.80;;;;;;5089556;28;20436;-83
2021/04/07 02:49:21;;;;;;;1.00;0.67;;;20.80;50.20;;;;;;5077899;28;20245;-83
2021/04/07 02:51:48;;;;;;;0.90;0.60;;;21.20;49.30;;;;;;5095501;28;20177;-82
2021/04/07 02:54:13;;;;;;;1.03;0.70;;;20.80;48.90;;;;;;5090566;28;20415;-82
2021/04/07 02:56:39;;;;;;;1.10;0.70;;;20.80;49.40;;;;;;5073525;28;20496;-82
2021/04/07 02:59:07;;;;;;;1.70;0.67;;;20.80;49.30;;;;;;5089247;28;20213;-82
2021/04/07 03:01:36;;;;;;;0.90;0.73;;;20.80;50.10;;;;;;5089972;28;20182;-84
2021/04/07 03:04:03;;;;;;;1.20;0.60;;;20.90;48.80;;;;;;5105727;28;20460;-83
2021/04/07 03:06:28;;;;;;;0.70;0.60;;;20.60;49.90;;;;;;5070514;28;20429;-83
2021/04/07 03:08:54;;;;;;;1.00;0.70;;;20.80;49.90;;;;;;5088674;28;20439;-83
2021/04/07 03:11:20;;;;;;;1.10;0.90;;;20.80;49.50;;;;;;5092013;28;20193;-83
2021/04/07 03:13:46;;;;;;;1.10;0.67;;;20.80;49.40;;;;;;5072813;28;20208;-83
2021/04/07 03:16:12;;;;;;;0.90;0.60;;;20.80;49.40;;;;;;5071833;28;20249;-83
2021/04/07 03:18:38;;;;;;;1.20;0.83;;;20.80;49.30;;;;;;5071526;28;20478;-83
2021/04/07 03:21:05;;;;;;;0.90;0.60;;;20.80;49.50;;;;;;5094586;28;20436;-83
2021/04/07 03:23:31;;;;;;;1.70;0.80;;;20.80;49.00;;;;;;5085355;28;20201;-83
2021/04/07 03:25:56;;;;;;;1.30;0.63;;;20.80;49.20;;;;;;5073204;28;20424;-83
2021/04/07 03:28:22;;;;;;;0.80;0.60;;;20.80;49.60;;;;;;5073496;28;20178;-83
2021/04/07 03:30:51;;;;;;;1.87;0.70;;;20.80;49.10;;;;;;5092286;28;20185;-83
2021/04/07 03:33:20;;;;;;;1.67;0.70;;;20.80;49.10;;;;;;5078238;28;20420;-83
2021/04/07 03:35:47;;;;;;;1.47;0.70;;;20.80;49.70;;;;;;5090243;28;20531;-83
2021/04/07 03:38:13;;;;;;;1.00;0.73;;;20.80;49.00;;;;;;5087713;28;20436;-83
2021/04/07 03:40:39;;;;;;;1.03;0.63;;;20.80;49.20;;;;;;5090089;28;20419;-82
2021/04/07 03:43:07;;;;;;;1.20;0.80;;;20.80;49.00;;;;;;5075334;28;20456;-83
2021/04/07 03:45:35;;;;;;;1.90;0.80;;;20.80;49.00;;;;;;5087800;28;20437;-83
2021/04/07 03:48:02;;;;;;;1.10;0.80;;;20.70;49.50;;;;;;5053174;28;20427;-82
2021/04/07 03:50:28;;;;;;;0.90;0.70;;;20.70;49.00;;;;;;5090453;28;20588;-83
2021/04/07 03:52:54;;;;;;;1.40;0.80;;;20.70;48.80;;;;;;5092413;28;20799;-83
2021/04/07 03:55:20;;;;;;;1.00;0.70;;;20.70;49.30;;;;;;5074046;28;20479;-83
2021/04/07 03:57:46;;;;;;;0.80;0.60;;;20.70;48.80;;;;;;5079375;28;20178;-83
2021/04/07 04:00:12;;;;;;;2.47;0.80;;;20.70;50.10;;;;;;5091753;28;20417;-83
2021/04/07 04:02:38;;;;;;;3.10;0.70;;;20.70;49.00;;;;;;5089833;28;20240;-83
2021/04/07 04:05:07;;;;;;;1.30;0.70;;;20.70;49.00;;;;;;5081808;28;20484;-83
2021/04/07 04:07:33;;;;;;;0.90;0.60;;;20.70;49.30;;;;;;5070022;28;20497;-82
2021/04/07 04:09:59;;;;;;;0.77;0.50;;;20.70;49.50;;;;;;5065112;28;20416;-83
2021/04/07 04:12:25;;;;;;;1.10;0.70;;;20.70;49.90;;;;;;5082802;28;20281;-83
2021/04/07 04:14:51;;;;;;;1.13;0.70;;;20.70;49.90;;;;;;5069794;28;20476;-83
2021/04/07 04:17:16;;;;;;;0.80;0.70;;;20.70;49.60;;;;;;5068590;28;20209;-82
2021/04/07 04:19:42;;;;;;;0.93;0.63;;;20.60;49.10;;;;;;5084200;28;20182;-82
2021/04/07 04:22:08;;;;;;;1.00;0.70;;;20.60;49.50;;;;;;5050327;28;20214;-83
2021/04/07 04:24:34;;;;;;;1.30;0.70;;;20.60;49.40;;;;;;5065751;28;20193;-83
2021/04/07 04:27:00;;;;;;;1.20;0.70;;;20.60;49.50;;;;;;5086990;28;20187;-83
2021/04/07 04:29:26;;;;;;;0.80;0.50;;;20.60;49.40;;;;;;5070991;28;20181;-82
2021/04/07 04:31:58;;;;;;;0.97;0.63;;;20.60;49.00;;;;;;5090722;28;20415;-83
2021/04/07 04:34:23;;;;;;;0.93;0.70;;;20.60;48.80;;;;;;5071803;28;20428;-83
2021/04/07 04:36:49;;;;;;;1.80;0.80;;;20.60;49.40;;;;;;5069467;28;20520;-82
2021/04/07 04:39:15;;;;;;;0.90;0.60;;;20.70;49.70;;;;;;5069870;28;20197;-84
2021/04/07 04:41:40;;;;;;;1.00;0.70;;;20.60;49.20;;;;;;5087859;28;20178;-83
2021/04/07 04:44:06;;;;;;;3.00;0.70;;;20.70;49.40;;;;;;5086430;28;20233;-82
2021/04/07 04:46:32;;;;;;;1.40;0.70;;;20.70;49.50;;;;;;5069452;28;20209;-82
2021/04/07 04:49:02;;;;;;;1.00;0.60;;;20.70;49.30;;;;;;5087098;28;20193;-83
2021/04/07 04:51:28;;;;;;;0.80;0.70;;;20.70;49.20;;;;;;5088513;28;20193;-82
2021/04/07 04:53:57;;;;;;;0.80;0.50;;;20.70;49.80;;;;;;5085015;28;20411;-83
2021/04/07 04:56:23;;;;;;;1.73;0.70;;;20.70;48.90;;;;;;5087429;28;20182;-82
2021/04/07 04:58:49;;;;;;;1.63;0.90;;;20.70;49.20;;;;;;5072040;28;20852;-82
2021/04/07 05:01:14;;;;;;;0.97;0.70;;;20.70;49.50;;;;;;5069867;28;20182;-83
2021/04/07 05:03:40;;;;;;;1.03;0.70;;;20.80;49.00;;;;;;5091293;28;20209;-83
2021/04/07 05:06:06;;;;;;;1.40;0.70;;;20.80;49.40;;;;;;5086656;28;20209;-83
2021/04/07 05:08:32;;;;;;;1.00;0.70;;;20.80;49.10;;;;;;5086862;28;20617;-83
2021/04/07 05:10:58;;;;;;;1.00;0.60;;;20.80;49.40;;;;;;5089419;28;20514;-83
2021/04/07 05:13:23;;;;;;;1.00;0.60;;;20.80;49.00;;;;;;5073695;28;20182;-83
2021/04/07 05:19:12;;;;;;;1.00;0.60;;;20.90;48.50;;;;;;5086126;28;20181;-83
2021/04/07 05:21:38;;;;;;;1.27;0.73;;;20.90;49.60;;;;;;5069755;28;20458;-83
2021/04/07 05:24:05;;;;;;;0.80;0.60;;;20.90;49.10;;;;;;5088676;28;20456;-83
2021/04/07 05:26:31;;;;;;;0.90;0.60;;;20.90;48.60;;;;;;5087183;28;20501;-83
2021/04/07 05:28:57;;;;;;;0.80;0.60;;;20.90;49.10;;;;;;5087481;28;20417;-82
2021/04/07 05:31:22;;;;;;;0.80;0.60;;;20.90;49.10;;;;;;5089658;28;20182;-84
2021/04/07 05:33:48;;;;;;;0.80;0.50;;;20.90;48.90;;;;;;5071708;28;20200;-83
2021/04/07 05:36:16;;;;;;;0.80;0.60;;;21.00;49.10;;;;;;5072465;28;20186;-83
2021/04/07 05:38:42;;;;;;;1.00;0.70;;;21.00;48.40;;;;;;5087489;28;20195;-83
2021/04/07 05:41:09;;;;;;;1.00;0.77;;;21.00;48.50;;;;;;5089704;28;20784;-83
2021/04/07 05:43:37;;;;;;;1.00;0.70;;;21.00;48.60;;;;;;5059823;28;20463;-83
2021/04/07 05:46:06;;;;;;;0.90;0.60;;;21.00;48.40;;;;;;5078068;28;20784;-83
2021/04/07 05:48:32;;;;;;;1.10;0.80;;;21.10;48.60;;;;;;5076042;28;20424;-83
2021/04/07 05:50:58;;;;;;;0.80;0.60;;;21.00;48.30;;;;;;5075749;28;20431;-83
2021/04/07 05:53:27;;;;;;;1.30;0.60;;;21.00;49.10;;;;;;5085688;28;20417;-86
2021/04/07 05:59:15;;;;;;;0.90;0.60;;;21.00;48.20;;;;;;5082104;28;20396;-84
2021/04/07 06:01:41;;;;;;;0.80;0.60;;;21.10;48.90;;;;;;5075625;28;20420;-84
2021/04/07 06:04:06;;;;;;;0.80;0.60;;;21.00;48.80;;;;;;5055747;28;20266;-84
2021/04/07 06:09:55;;;;;;;0.93;0.67;;;21.00;48.30;;;;;;5086225;28;20169;-84
2021/04/07 06:12:20;;;;;;;1.37;0.60;;;21.00;49.40;;;;;;5072482;28;20413;-83
2021/04/07 06:14:46;;;;;;;0.90;0.70;;;21.00;49.10;;;;;;5089351;28;20444;-84
2021/04/07 06:17:12;;;;;;;0.90;0.60;;;21.00;49.00;;;;;;5089269;28;20679;-84
2021/04/07 06:19:37;;;;;;;1.00;0.60;;;21.00;48.70;;;;;;5089128;28;20268;-84
2021/04/07 06:22:03;;;;;;;1.10;0.73;;;21.00;49.20;;;;;;5080100;28;20675;-83
2021/04/07 06:24:30;;;;;;;0.87;0.73;;;21.00;49.00;;;;;;5072313;28;20189;-83
2021/04/07 06:26:59;;;;;;;0.83;0.60;;;21.00;48.30;;;;;;5076736;28;20186;-84
2021/04/07 06:29:27;;;;;;;1.73;1.33;;;21.00;48.60;;;;;;5094645;28;20413;-83
2021/04/07 06:31:53;;;;;;;0.90;0.60;;;21.10;48.70;;;;;;5071565;28;20480;-82
2021/04/07 06:34:19;;;;;;;1.90;1.20;;;21.00;48.80;;;;;;5071822;28;20539;-84
2021/04/07 06:36:45;;;;;;;2.90;1.77;;;21.10;48.70;;;;;;5100359;28;20925;-83
2021/04/07 06:39:11;;;;;;;2.67;1.70;;;21.00;49.00;;;;;;5096864;28;20458;-83
2021/04/07 06:41:45;;;;;;;4.33;3.20;;;21.00;48.80;;;;;;5067905;28;20495;-84
2021/04/07 06:44:12;;;;;;;3.77;1.63;;;21.10;48.70;;;;;;5089949;28;20217;-83
2021/04/07 06:46:39;;;;;;;1.87;1.50;;;21.10;48.50;;;;;;5082582;28;20429;-83
2021/04/07 06:49:05;;;;;;;2.27;1.80;;;21.10;49.10;;;;;;5075646;28;20492;-83
2021/04/07 06:51:34;;;;;;;4.33;2.30;;;21.10;48.90;;;;;;5070127;28;20435;-83
2021/04/07 06:54:01;;;;;;;3.57;2.07;;;21.10;48.50;;;;;;5089987;28;20429;-84
2021/04/07 06:56:27;;;;;;;4.47;2.77;;;21.20;48.40;;;;;;5089188;28;20417;-83
2021/04/07 06:58:53;;;;;;;3.87;2.20;;;21.00;49.10;;;;;;5085651;28;20503;-83
2021/04/07 07:01:19;;;;;;;4.53;2.70;;;21.30;49.40;;;;;;5076022;28;21001;-83
2021/04/07 07:03:45;;;;;;;3.47;2.70;;;21.10;49.50;;;;;;5079352;28;20237;-83
2021/04/07 07:06:18;;;;;;;3.50;2.20;;;21.10;49.40;;;;;;5096161;28;20223;-83
2021/04/07 07:08:43;;;;;;;3.83;2.27;;;21.10;48.90;;;;;;5098774;28;20409;-84
2021/04/07 07:11:17;;;;;;;2.83;2.17;;;21.10;48.80;;;;;;5092758;28;20493;-83
2021/04/07 07:13:43;;;;;;;3.47;2.37;;;21.10;48.80;;;;;;5072575;28;20162;-82
2021/04/07 07:16:12;;;;;;;4.10;2.80;;;21.10;48.50;;;;;;5073482;28;20463;-82
2021/04/07 07:18:42;;;;;;;3.80;2.20;;;21.10;48.70;;;;;;5073981;28;20456;-84
2021/04/07 07:21:20;;;;;;;4.50;2.63;;;21.10;48.40;;;;;;5070915;28;20455;-86
2021/04/07 07:23:48;;;;;;;3.93;2.80;;;21.10;48.30;;;;;;5069112;28;20472;-84
2021/04/07 07:26:16;;;;;;;3.70;2.60;;;21.10;48.30;;;;;;5089095;28;20559;-83
2021/04/07 07:28:54;;;;;;;3.83;2.13;;;21.10;48.10;;;;;;5089345;28;20404;-83
2021/04/07 07:31:24;;;;;;;3.93;2.53;;;21.10;48.30;;;;;;5069763;28;20439;-86
2021/04/07 07:34:04;;;;;;;5.13;2.70;;;21.10;48.20;;;;;;5085041;28;20436;-88
2021/04/07 07:36:34;;;;;;;3.03;2.00;;;21.10;48.50;;;;;;5065884;28;20443;-89
2021/04/07 07:39:00;;;;;;;3.40;1.83;;;21.20;48.40;;;;;;5082785;28;20433;-89
2021/04/07 07:41:35;;;;;;;4.30;2.20;;;21.20;48.60;;;;;;5085319;28;20420;-89
2021/04/07 07:51:34;;;;;;;3.33;1.73;;;21.40;48.10;;;;;;5004126;28;20431;-89
2021/04/07 07:54:13;;;;;;;3.17;1.87;;;21.40;48.10;;;;;;4989211;28;20826;-86
2021/04/07 07:56:57;;;;;;;2.63;1.93;;;20.90;47.90;;;;;;5002851;28;20447;-86
2021/04/07 08:06:31;;;;;;;2.33;1.53;;;21.50;48.10;;;;;;4944786;28;20393;-86
2021/04/07 08:09:20;;;;;;;3.57;2.10;;;21.50;48.10;;;;;;4945437;29;20423;-86
2021/04/07 08:12:40;;;;;;;;;;;;;;;;;;;;;
2021/04/07 08:21:38;;;;;;;3.00;1.83;;;21.60;48.10;;;;;;4923488;29;20423;-85
2021/04/07 08:35:33;;;;;;;2.13;1.33;;;21.70;48.20;;;;;;4908805;29;20569;-85
2021/04/07 08:38:06;;;;;;;2.33;1.47;;;21.70;48.20;;;;;;4912997;29;20453;-82
2021/04/07 08:41:34;;;;;;;2.60;1.50;;;21.70;48.30;;;;;;4907496;29;20460;-83
2021/04/07 08:44:07;;;;;;;2.03;1.20;;;21.80;48.20;;;;;;4836427;29;20476;-82
2021/04/07 08:46:46;;;;;;;1.70;1.40;;;21.70;48.20;;;;;;4823541;29;20441;-82
2021/04/07 08:49:37;;;;;;;4.63;1.40;;;21.80;48.20;;;;;;4894825;29;20550;-83
2021/04/07 08:52:21;;;;;;;3.63;1.60;;;21.80;48.10;;;;;;4899335;29;20441;-82
2021/04/07 08:54:52;;;;;;;3.73;1.80;;;21.80;48.10;;;;;;4893958;29;20989;-82
2021/04/07 08:57:35;;;;;;;1.87;1.20;;;21.90;48.10;;;;;;4909601;29;20420;-82
2021/04/07 09:00:27;;;;;;;3.27;1.80;;;21.90;48.10;;;;;;4916073;29;20475;-84
2021/04/07 09:02:55;;;;;;;2.83;1.60;;;21.90;48.10;;;;;;4992750;28;20459;-83
2021/04/07 09:05:38;;;;;;;2.10;1.30;;;21.90;48.20;;;;;;5015078;28;20431;-83
2021/04/07 09:08:08;;;;;;;2.60;1.43;;;21.90;48.10;;;;;;5019476;28;20415;-83
2021/04/07 09:10:43;;;;;;;2.30;1.33;;;22.00;48.30;;;;;;5046230;28;20416;-83
2021/04/07 09:13:16;;;;;;;1.97;1.23;;;22.00;48.30;;;;;;5069976;28;20917;-83
2021/04/07 09:15:46;;;;;;;1.70;1.10;;;22.00;48.20;;;;;;5072356;28;20420;-84
2021/04/07 09:18:11;;;;;;;2.67;1.30;;;22.00;48.40;;;;;;5072891;28;20455;-84
2021/04/07 09:20:43;;;;;;;2.67;1.43;;;22.00;48.40;;;;;;5073895;28;20412;-84
2021/04/07 09:23:10;;;;;;;2.00;1.30;;;22.00;48.50;;;;;;5074127;28;20206;-83
2021/04/07 09:25:37;;;;;;;2.73;1.23;;;22.00;48.10;;;;;;5091019;28;20420;-84
2021/04/07 09:28:07;;;;;;;4.60;1.30;;;22.00;48.10;;;;;;5090953;28;20466;-83
2021/04/07 09:30:47;;;;;;;2.13;1.30;;;22.10;48.20;;;;;;5073002;28;20413;-83
2021/04/07 09:33:19;;;;;;;1.60;1.10;;;22.10;48.30;;;;;;5073227;28;20491;-83
2021/04/07 09:36:00;;;;;;;1.47;0.90;;;22.10;48.20;;;;;;5074079;28;20424;-83
2021/04/07 09:38:28;;;;;;;1.90;1.00;;;22.10;48.20;;;;;;5090952;28;20432;-83
2021/04/07 09:41:07;;;;;;;2.20;1.20;;;22.10;48.10;;;;;;5072755;28;20409;-82
2021/04/07 09:43:33;;;;;;;2.37;1.30;;;22.10;48.10;;;;;;5073113;28;20466;-83
2021/04/07 09:45:59;;;;;;;1.50;1.20;;;22.10;48.30;;;;;;5073460;28;20409;-82
2021/04/07 09:48:42;;;;;;;1.77;1.33;;;22.10;48.30;;;;;;5073007;28;20424;-83
2021/04/07 09:51:22;;;;;;;3.33;1.30;;;22.10;48.00;;;;;;5072823;28;20202;-83
2021/04/07 09:53:48;;;;;;;2.07;1.00;;;22.10;48.10;;;;;;5070641;28;20437;-84
2021/04/07 09:56:14;;;;;;;2.70;1.23;;;22.10;48.10;;;;;;5070354;28;20421;-83
2021/04/07 09:58:43;;;;;;;2.20;1.30;;;22.10;48.20;;;;;;5070817;28;20454;-82
2021/04/07 10:01:10;;;;;;;3.43;1.10;;;22.10;48.10;;;;;;5069820;28;20197;-85
2021/04/07 10:03:36;;;;;;;2.87;1.30;;;22.20;48.10;;;;;;5069800;28;20460;-85
2021/04/07 10:06:02;;;;;;;1.37;1.00;;;22.20;48.20;;;;;;5088855;28;20412;-83
2021/04/07 10:08:27;;;;;;;1.73;1.20;;;22.20;48.20;;;;;;5071295;28;20443;-85
2021/04/07 10:11:50;;;;;;;1.43;1.03;;;22.20;48.20;;;;;;5071062;28;20171;-85
2021/04/07 10:14:19;;;;;;;1.80;1.17;;;22.20;48.00;;;;;;4989315;28;20168;-85
2021/04/07 10:17:17;;;;;;;2.37;1.10;;;22.10;48.00;;;;;;5087491;28;20424;-84
2021/04/07 10:19:47;;;;;;;2.17;1.10;;;22.20;48.10;;;;;;5073041;28;20424;-84
2021/04/07 10:22:20;;;;;;;4.50;1.23;;;22.10;48.10;;;;;;5073479;28;20417;-84
2021/04/07 10:24:49;;;;;;;2.10;1.20;;;22.20;48.10;;;;;;5074381;28;20413;-84
2021/04/07 10:27:20;;;;;;;4.00;1.03;;;22.20;48.10;;;;;;5073391;28;20408;-84
2021/04/07 10:29:46;;;;;;;2.10;1.20;;;22.20;48.10;;;;;;5092727;28;20511;-82
2021/04/07 10:32:19;;;;;;;1.50;1.00;;;22.20;48.20;;;;;;5092924;28;20409;-84
2021/04/07 10:34:46;;;;;;;3.17;1.17;;;22.20;48.10;;;;;;5074636;28;20574;-84
2021/04/07 10:37:17;;;;;;;3.00;1.60;;;22.20;48.10;;;;;;5092757;28;20468;-83
2021/04/07 10:39:43;;;;;;;1.60;1.10;;;22.20;48.10;;;;;;5093030;28;20570;-83
2021/04/07 10:42:15;;;;;;;2.10;0.93;;;22.20;48.20;;;;;;5074572;28;20432;-83
2021/04/07 10:44:41;;;;;;;1.40;1.00;;;22.20;48.10;;;;;;5075127;28;20456;-84
2021/04/07 10:47:17;;;;;;;1.60;1.27;;;22.20;48.40;;;;;;5074720;28;20424;-82
2021/04/07 10:49:53;;;;;;;2.43;1.37;;;22.20;48.50;;;;;;5091576;28;20412;-82
2021/04/07 10:52:32;;;;;;;1.40;1.20;;;22.20;48.20;;;;;;5092823;28;20396;-82
2021/04/07 10:54:59;;;;;;;1.50;1.10;;;22.20;48.10;;;;;;5074500;28;20417;-83
2021/04/07 10:57:36;;;;;;;2.63;1.10;;;22.20;48.10;;;;;;5074129;28;20496;-82
2021/04/07 11:00:11;;;;;;;1.40;1.00;;;22.20;48.10;;;;;;5091810;28;20499;-82
2021/04/07 11:02:45;;;;;;;1.63;0.80;;;22.20;48.10;;;;;;5073998;28;20467;-82
2021/04/07 11:05:17;;;;;;;1.53;1.10;;;22.20;48.00;;;;;;5091867;28;20388;-83
2021/04/07 11:07:44;;;;;;;2.27;1.00;;;22.20;47.90;;;;;;5091521;28;20389;-82
2021/04/07 11:10:14;;;;;;;2.30;1.33;;;22.20;48.00;;;;;;5074211;28;20413;-83
2021/04/07 11:12:44;;;;;;;8.67;2.47;;;22.20;47.90;;;;;;5093047;28;20409;-82
2021/04/07 11:15:13;;;;;;;6.90;3.20;;;22.20;48.10;;;;;;5089821;28;20424;-82
2021/04/07 11:17:53;;;;;;;7.27;3.33;;;22.10;48.00;;;;;;5073750;28;20413;-82
2021/04/07 11:20:20;;;;;;;15.30;4.20;;;22.20;48.00;;;;;;5073309;28;20501;-83
2021/04/07 11:22:46;;;;;;;12.53;3.60;;;22.20;48.00;;;;;;5091431;28;20519;-82
2021/04/07 11:25:13;;;;;;;15.77;5.73;;;22.30;48.20;;;;;;5090046;28;20404;-83
2021/04/07 11:27:41;;;;;;;21.53;5.63;;;22.10;47.90;;;;;;5073218;28;20190;-83
2021/04/07 11:30:09;;;;;;;15.17;5.37;;;22.10;47.90;;;;;;5091841;28;20417;-83
2021/04/07 11:32:38;;;;;;;14.60;6.07;;;22.10;48.00;;;;;;5074044;28;20417;-83
2021/04/07 11:35:21;;;;;;;20.83;6.70;;;22.10;48.20;;;;;;5090538;28;20419;-83
2021/04/07 11:37:58;;;;;;;18.27;7.37;;;22.00;47.90;;;;;;5073311;28;20416;-83
2021/04/07 11:43:19;;;;;;;21.07;6.47;;;22.10;47.90;;;;;;5091017;28;20468;-84
2021/04/07 11:45:48;;;;;;;22.70;8.93;;;22.10;48.00;;;;;;5090440;28;20404;-84
2021/04/07 11:48:16;;;;;;;24.10;7.87;;;22.10;48.10;;;;;;5073343;28;20472;-84
2021/04/07 11:50:42;;;;;;;20.50;6.80;;;22.10;48.20;;;;;;5090626;28;20417;-84
2021/04/07 11:53:08;;;;;;;20.37;6.90;;;22.10;48.10;;;;;;5088797;28;20507;-84
2021/04/07 11:55:33;;;;;;;13.60;6.23;;;22.10;48.20;;;;;;5072841;28;20200;-85
2021/04/07 11:58:32;;;;;;;22.97;7.77;;;22.10;48.30;;;;;;5072809;28;20178;-83
2021/04/07 12:00:58;;;;;;;16.10;7.97;;;22.00;47.90;;;;;;5073570;28;20232;-83
2021/04/07 12:03:23;;;;;;;19.50;6.93;;;22.00;48.20;;;;;;5073309;28;20532;-83
2021/04/07 12:05:49;;;;;;;14.70;6.13;;;22.00;48.10;;;;;;5091083;28;20200;-83
2021/04/07 12:08:15;;;;;;;21.70;8.30;;;22.00;48.30;;;;;;5090262;28;20181;-82
2021/04/07 12:10:41;;;;;;;19.17;7.50;;;22.00;48.10;;;;;;5091775;28;20396;-82
2021/04/07 12:13:10;;;;;;;22.83;8.20;;;22.00;48.20;;;;;;5074168;28;20424;-82
2021/04/07 12:15:39;;;;;;;21.03;8.23;;;22.00;48.20;;;;;;5091403;28;20424;-82
2021/04/07 12:18:11;;;;;;;18.33;8.63;;;21.90;48.00;;;;;;5089845;28;20488;-82
2021/04/07 12:20:40;;;;;;;23.77;8.83;;;22.00;48.10;;;;;;5090495;28;20455;-82
2021/04/07 12:23:18;;;;;;;17.73;8.73;;;22.00;48.50;;;;;;5091882;28;20451;-81
2021/04/07 12:25:44;;;;;;;22.23;9.30;;;22.00;48.30;;;;;;5073160;28;20419;-81
2021/04/07 12:28:09;;;;;;;19.27;9.13;;;22.00;48.30;;;;;;5091669;28;20405;-82
2021/04/07 12:30:50;;;;;;;24.47;8.87;;;22.00;48.30;;;;;;5073878;28;20189;-82
2021/04/07 12:33:18;;;;;;;19.87;9.40;;;22.00;48.10;;;;;;5091897;28;20174;-82
2021/04/07 12:35:59;;;;;;;20.07;9.60;;;22.00;48.20;;;;;;5074191;28;20424;-82
2021/04/07 12:38:26;;;;;;;15.73;8.00;;;22.00;48.10;;;;;;5090742;28;20436;-82
2021/04/07 12:40:55;;;;;;;18.30;8.67;;;22.00;48.50;;;;;;5072141;28;20423;-83
2021/04/07 12:43:21;;;;;;;22.10;9.07;;;22.00;48.30;;;;;;5090074;28;20949;-83
2021/04/07 12:45:47;;;;;;;17.77;8.20;;;22.00;48.20;;;;;;5088764;28;20413;-83
2021/04/07 12:48:14;;;;;;;15.50;8.00;;;22.00;48.30;;;;;;5090803;28;20174;-82
2021/04/07 12:50:41;;;;;;;17.50;8.80;;;22.00;48.20;;;;;;5091866;28;20181;-83
2021/04/07 12:53:53;;;;;;;;;;;;;;;;;;;;;
2021/04/07 12:56:52;;;;;;;17.87;8.17;;;22.00;48.10;;;;;;4996949;28;20408;-83
2021/04/07 12:59:43;;;;;;;19.50;8.77;;;22.00;48.40;;;;;;4962577;28;20433;-83
2021/04/07 13:02:12;;;;;;;20.33;9.00;;;22.00;48.40;;;;;;4992020;28;20437;-84
2021/04/07 13:04:41;;;;;;;18.07;7.80;;;22.00;48.30;;;;;;4992426;28;20439;-84
2021/04/07 13:07:33;;;;;;;22.00;9.53;;;21.90;48.20;;;;;;4992494;28;20429;-83
2021/04/07 13:09:59;;;;;;;21.80;8.20;;;22.00;48.50;;;;;;4975647;28;21086;-83
2021/04/07 13:12:25;;;;;;;23.83;9.40;;;21.90;49.00;;;;;;4976493;28;20433;-84
2021/04/07 13:18:07;;;;;;;16.90;8.00;;;21.90;48.30;;;;;;4937378;29;20200;-83
2021/04/07 13:20:33;;;;;;;14.23;7.87;;;22.00;48.50;;;;;;4994161;28;20833;-83
2021/04/07 13:23:24;;;;;;;15.10;7.60;;;21.90;48.40;;;;;;4992573;28;20562;-83
2021/04/07 13:25:59;;;;;;;10.53;7.33;;;21.90;48.20;;;;;;4991399;28;20405;-83
2021/04/07 13:28:30;;;;;;;17.33;8.50;;;21.90;48.30;;;;;;4993099;28;20447;-84
2021/04/07 13:30:57;;;;;;;14.90;8.07;;;21.90;48.30;;;;;;4974959;28;20828;-84
2021/04/07 13:36:09;;;;;;;15.40;8.00;;;21.80;48.20;;;;;;5006541;28;20392;-88
2021/04/07 13:44:08;;;;;;;16.87;8.10;;;21.90;48.30;;;;;;5008038;28;20664;-84
2021/04/07 13:46:33;;;;;;;15.80;8.00;;;21.90;48.50;;;;;;5008626;28;20526;-84
2021/04/07 13:48:59;;;;;;;24.13;10.30;;;21.90;48.40;;;;;;5008022;28;20200;-84
2021/04/07 13:51:26;;;;;;;16.20;8.53;;;21.90;48.30;;;;;;5007652;28;20268;-84
2021/04/07 13:53:53;;;;;;;15.97;8.20;;;21.90;48.30;;;;;;5081346;28;20409;-84
2021/04/07 13:56:31;;;;;;;16.80;7.97;;;22.00;48.30;;;;;;5071344;28;20416;-84